Time;durP1;ratioP1;P1;durP2;ratioP2;P2;SDS_P1;SDS_P2;PMS_P1;PMS_P2;Temp;Humidity;BMP_temperature;BMP_pressure;BME280_temperature;BME280_humidity;BME280_pressure;Samples;Min_cycle;Max_cycle;Signal;HPM_P1;HPM_P2
2022/12/14 00:01:29;;;;;;;4.95;3.00;;;;;;;-6.58;100.00;100526.22;6223818;28;20050;-74
2022/12/14 00:04:32;;;;;;;11.75;6.25;;;;;;;-6.53;100.00;100532.25;6223924;28;20058;-74
2022/12/14 00:07:33;;;;;;;8.55;4.13;;;;;;;-6.52;100.00;100527.13;6223807;28;20046;-74
2022/12/14 00:10:36;;;;;;;21.42;6.15;;;;;;;-6.49;100.00;100518.66;6223728;28;20053;-74
2022/12/14 00:13:38;;;;;;;13.15;5.18;;;;;;;-6.50;100.00;100516.91;6223816;28;20046;-74
2022/12/14 00:16:39;;;;;;;13.05;4.60;;;;;;;-6.49;100.00;100518.66;6223704;28;20050;-74
2022/12/14 00:19:42;;;;;;;9.50;3.97;;;;;;;-6.51;100.00;100510.09;6223649;28;20049;-73
2022/12/14 00:22:44;;;;;;;9.75;4.78;;;;;;;-6.45;100.00;100510.16;6223763;28;20050;-74
2022/12/14 00:25:45;;;;;;;10.98;5.15;;;;;;;-6.46;100.00;100509.31;6222436;28;20054;-74
2022/12/14 00:28:48;;;;;;;15.43;4.50;;;;;;;-6.47;100.00;100505.03;6223093;28;20050;-74
2022/12/14 00:31:49;;;;;;;9.45;3.40;;;;;;;-6.48;100.00;100502.47;6223254;28;20058;-74
2022/12/14 00:34:52;;;;;;;12.25;5.13;;;;;;;-6.48;100.00;100502.47;6223066;28;20049;-74
2022/12/14 00:37:54;;;;;;;5.72;3.55;;;;;;;-6.44;100.00;100506.78;6223253;28;20050;-74
2022/12/14 00:40:55;;;;;;;11.43;4.63;;;;;;;-6.42;100.00;100502.53;6222831;28;20409;-74
2022/12/14 00:43:57;;;;;;;6.82;4.13;;;;;;;-6.39;100.00;100505.13;6223171;28;20050;-74
2022/12/14 00:46:59;;;;;;;13.57;5.03;;;;;;;-6.43;100.00;100498.28;6222851;28;20046;-74
2022/12/14 00:50:02;;;;;;;5.55;3.90;;;;;;;-6.41;100.00;100504.25;6222934;28;20056;-74
2022/12/14 00:53:03;;;;;;;21.55;5.07;;;;;;;-6.45;100.00;100498.28;6222886;28;20053;-73
2022/12/14 00:56:06;;;;;;;5.20;3.25;;;;;;;-6.46;100.00;100501.63;6222509;28;20128;-74
2022/12/14 00:59:07;;;;;;;8.65;4.40;;;;;;;-6.46;100.00;100493.97;6222767;28;20518;-73
2022/12/14 01:02:09;;;;;;;9.30;5.82;;;;;;;-6.46;100.00;100493.97;6222502;28;20046;-74
2022/12/14 01:05:12;;;;;;;5.70;4.07;;;;;;;-6.45;100.00;100497.38;6222694;28;20061;-73
2022/12/14 01:08:13;;;;;;;11.98;4.55;;;;;;;-6.47;100.00;100497.38;6222419;28;20057;-74
2022/12/14 01:11:15;;;;;;;8.25;4.38;;;;;;;-6.45;100.00;100495.72;6222315;28;20513;-74
2022/12/14 01:14:19;;;;;;;7.15;4.40;;;;;;;-6.48;100.00;100493.09;6222399;28;20147;-74
2022/12/14 01:17:20;;;;;;;11.55;4.55;;;;;;;-6.44;100.00;100497.41;6222436;28;20486;-74
2022/12/14 01:20:23;;;;;;;11.45;5.72;;;;;;;-6.45;100.00;100487.16;6222218;28;20050;-73
2022/12/14 01:23:24;;;;;;;21.83;5.95;;;;;;;-6.46;100.00;100486.31;6222469;28;20057;-74
2022/12/14 01:26:27;;;;;;;6.40;3.92;;;;;;;-6.44;100.00;100481.22;6221909;28;20049;-74
2022/12/14 01:29:29;;;;;;;22.73;4.82;;;;;;;-6.45;100.00;100479.50;6222438;28;20050;-74
2022/12/14 01:32:30;;;;;;;4.75;2.58;;;;;;;-6.48;100.00;100475.22;6222065;28;20053;-74
2022/12/14 01:35:34;;;;;;;8.23;5.25;;;;;;;-6.46;100.00;100465.00;6222399;28;20104;-74
2022/12/14 01:38:36;;;;;;;18.20;4.95;;;;;;;-6.47;100.00;100464.16;6221744;28;20497;-74
2022/12/14 01:41:39;;;;;;;5.38;3.88;;;;;;;-6.43;100.00;100460.78;6221851;28;20073;-73
2022/12/14 01:44:56;;;;;;;9.35;4.57;;;;;;;-6.46;100.00;100465.00;6222139;28;20057;-74
2022/12/14 01:48:02;;;;;;;11.60;3.75;;;;;;;-6.45;100.00;100453.94;6221778;28;20061;-74
2022/12/14 01:51:05;;;;;;;7.47;3.63;;;;;;;-6.52;100.00;100467.50;6221895;28;20054;-74
2022/12/14 01:54:10;;;;;;;11.13;4.60;;;;;;;-6.53;100.00;100451.31;6221848;28;20054;-74
2022/12/14 01:57:15;;;;;;;9.02;4.57;;;;;;;-6.56;100.00;100461.50;6221979;28;20052;-74
2022/12/14 02:00:17;;;;;;;11.00;4.55;;;;;;;-6.56;100.00;100452.97;6221687;28;20409;-74
2022/12/14 02:03:22;;;;;;;6.15;3.55;;;;;;;-6.52;100.00;100449.59;6221961;28;20477;-74
2022/12/14 02:06:29;;;;;;;5.82;3.75;;;;;;;-6.58;100.00;100447.84;6221473;28;20065;-74
2022/12/14 02:09:36;;;;;;;5.43;3.83;;;;;;;-6.58;100.00;100442.75;6221892;28;20049;-73
2022/12/14 02:12:41;;;;;;;6.13;2.97;;;;;;;-6.59;100.00;100443.56;6221651;28;20061;-74
2022/12/14 02:15:43;;;;;;;8.80;3.00;;;;;;;-6.59;100.00;100433.34;6221640;28;20457;-73
2022/12/14 02:18:45;;;;;;;4.90;3.28;;;;;;;-6.58;100.00;100436.78;6221501;28;20053;-74
2022/12/14 02:22:14;;;;;;;5.35;3.20;;;;;;;-6.65;100.00;100431.56;6221317;28;20433;-73
2022/12/14 02:25:51;;;;;;;17.10;5.97;;;;;;;-6.70;100.00;100434.94;6221520;28;20497;-74
2022/12/14 02:29:49;;;;;;;8.20;4.40;;;;;;;-6.74;100.00;100428.06;6218848;28;20042;-74
2022/12/14 02:33:02;;;;;;;6.75;4.50;;;;;;;-6.74;100.00;100412.75;6185982;28;20059;-74
2022/12/14 02:36:13;;;;;;;8.32;4.32;;;;;;;-6.79;100.00;100410.13;6221505;28;20058;-74
2022/12/14 02:39:23;;;;;;;7.97;4.18;;;;;;;-6.81;100.00;100416.94;6221485;28;20057;-74
2022/12/14 02:42:37;;;;;;;6.85;3.38;;;;;;;-6.83;100.00;100403.25;6221452;28;20049;-74
2022/12/14 02:45:43;;;;;;;9.10;5.13;;;;;;;-6.81;100.00;100398.16;6221268;28;20054;-74
2022/12/14 02:48:50;;;;;;;6.15;3.63;;;;;;;-6.80;100.00;100397.34;6221224;28;20417;-74
2022/12/14 02:51:56;;;;;;;5.50;3.83;;;;;;;-6.84;100.00;100385.38;6225667;28;20054;-74
2022/12/14 02:55:02;;;;;;;6.25;4.10;;;;;;;-6.81;100.00;100395.59;6225462;28;20378;-74
2022/12/14 02:58:08;;;;;;;10.48;4.35;;;;;;;-6.81;100.00;100391.38;6225484;28;20053;-74
2022/12/14 03:01:13;;;;;;;5.72;3.17;;;;;;;-6.78;100.00;100390.53;6225681;28;20053;-74
2022/12/14 03:04:17;;;;;;;10.05;4.28;;;;;;;-6.83;100.00;100382.84;6225264;28;20057;-74
2022/12/14 03:07:31;;;;;;;4.93;3.35;;;;;;;-6.88;100.00;100381.06;6225503;28;20524;-74
2022/12/14 03:10:39;;;;;;;6.15;2.20;;;;;;;-6.90;100.00;100375.97;6225170;28;20567;-73
2022/12/14 03:13:47;;;;;;;13.20;3.55;;;;;;;-6.88;100.00;100376.81;6225435;28;20049;-74
2022/12/14 03:16:52;;;;;;;8.13;4.60;;;;;;;-6.85;100.00;100365.78;6225057;28;20417;-74
2022/12/14 03:20:00;;;;;;;10.55;4.88;;;;;;;-6.88;100.00;100366.59;6224249;28;20085;-74
2022/12/14 03:23:06;;;;;;;7.53;4.25;;;;;;;-6.89;100.00;100362.34;6225203;28;20053;-74
2022/12/14 03:26:13;;;;;;;14.27;5.53;;;;;;;-6.93;100.00;100355.47;6224725;28;20058;-74
2022/12/14 03:29:20;;;;;;;16.42;4.43;;;;;;;-6.99;100.00;100343.50;6224954;28;20054;-74
2022/12/14 03:32:25;;;;;;;8.93;5.13;;;;;;;-7.08;100.00;100345.97;6224700;28;20133;-74
2022/12/14 03:35:32;;;;;;;7.68;2.78;;;;;;;-7.11;100.00;100339.97;6224780;28;20053;-74
2022/12/14 03:38:38;;;;;;;14.18;4.70;;;;;;;-7.11;100.00;100343.38;6224568;28;20068;-74
2022/12/14 03:41:46;;;;;;;6.43;3.88;;;;;;;-7.11;100.00;100328.03;6224780;28;20548;-74
2022/12/14 03:44:59;;;;;;;10.83;3.83;;;;;;;-7.16;100.00;100329.69;6224353;28;20433;-74
2022/12/14 03:48:09;;;;;;;20.63;6.70;;;;;;;-7.19;100.00;100324.53;6224550;28;20046;-74
2022/12/14 03:51:20;;;;;;;8.63;4.03;;;;;;;-7.24;100.00;100310.88;6224254;28;20046;-74
2022/12/14 03:54:28;;;;;;;10.90;3.70;;;;;;;-7.27;100.00;100309.13;6224124;28;20557;-74
2022/12/14 03:57:38;;;;;;;;;;;;;;;-7.28;100.00;100309.97;6224686;28;20045;-73
2022/12/14 04:00:45;;;;;;;3.50;2.50;;;;;;;-7.30;100.00;100310.81;6223918;28;19928;-74
2022/12/14 04:03:51;;;;;;;6.38;3.45;;;;;;;-7.30;100.00;100293.78;6223965;28;20049;-74
2022/12/14 04:07:00;;;;;;;2.70;1.85;;;;;;;-7.34;100.00;100294.59;6224160;28;20050;-74
2022/12/14 04:18:55;;;;;;;9.30;2.50;;;;;;;-7.36;100.00;100296.25;6223693;28;20059;-74
2022/12/14 04:20:20;;;;;;;7.35;3.53;;;;;;;-7.44;100.00;100293.63;6223440;28;20045;-74
2022/12/14 04:26:53;;;;;;;15.45;3.78;;;;;;;-7.46;100.00;100289.34;6223094;28;20092;-74
2022/12/14 04:29:56;;;;;;;7.35;4.32;;;;;;;-7.50;100.00;100293.53;6223394;28;20049;-73
2022/12/14 04:33:45;;;;;;;4.97;3.53;;;;;;;-7.49;100.00;100289.31;6223303;28;20062;-74
2022/12/14 04:36:31;;;;;;;10.93;2.97;;;;;;;-7.43;100.00;100300.44;6222911;28;20100;-74
2022/12/14 04:39:39;;;;;;;12.65;3.60;;;;;;;-7.46;100.00;100289.34;6223186;28;20493;-74
2022/12/14 04:42:47;;;;;;;8.40;4.03;;;;;;;-7.48;100.00;100284.22;6223369;28;20058;-74
2022/12/14 04:45:55;;;;;;;10.10;3.55;;;;;;;-7.46;100.00;100294.44;6222907;28;20057;-74
2022/12/14 04:49:02;;;;;;;8.98;5.15;;;;;;;-7.46;100.00;100289.34;6222175;28;20494;-74
2022/12/14 04:52:11;;;;;;;6.22;3.83;;;;;;;-7.47;100.00;100283.38;6222850;28;20486;-73
2022/12/14 04:55:23;;;;;;;7.68;4.18;;;;;;;-7.51;100.00;100275.66;6222922;28;20050;-74
2022/12/14 04:58:28;;;;;;;4.05;2.03;;;;;;;-7.55;100.00;100274.78;6222788;28;20453;-74
2022/12/14 05:01:41;;;;;;;10.13;3.67;;;;;;;-7.58;100.00;100269.66;6222722;28;20061;-74
2022/12/14 05:04:54;;;;;;;4.45;2.95;;;;;;;-7.58;100.00;100262.00;6222509;28;20053;-74
2022/12/14 05:08:04;;;;;;;3.17;2.88;;;;;;;-7.61;100.00;100267.06;6222828;28;20054;-74
2022/12/14 05:11:14;;;;;;;12.25;3.90;;;;;;;-7.59;100.00;100261.97;6222696;28;20050;-74
2022/12/14 05:14:21;;;;;;;5.63;4.20;;;;;;;-7.66;100.00;100261.91;6222213;28;20046;-74
2022/12/14 05:17:22;;;;;;;9.57;3.17;;;;;;;-7.66;100.00;100253.38;6222453;28;20061;-74
2022/12/14 05:20:24;;;;;;;4.78;2.35;;;;;;;-7.67;100.00;100255.09;6222221;28;20464;-74
2022/12/14 05:23:25;;;;;;;5.70;3.67;;;;;;;-7.71;100.00;100249.94;6222386;28;20053;-74
2022/12/14 05:26:28;;;;;;;7.05;3.45;;;;;;;-7.71;100.00;100242.28;6221902;28;20433;-74
2022/12/14 05:29:30;;;;;;;10.38;4.75;;;;;;;-7.76;100.00;100242.22;6222088;28;20056;-74
2022/12/14 05:32:31;;;;;;;8.35;3.35;;;;;;;-7.81;100.00;100238.75;6222156;28;20073;-74
2022/12/14 05:35:33;;;;;;;2.75;1.92;;;;;;;-7.82;100.00;100248.91;6221980;28;20045;-74
2022/12/14 05:38:34;;;;;;;6.95;3.70;;;;;;;-7.82;100.00;100243.81;6222104;28;20126;-74
2022/12/14 05:41:37;;;;;;;12.00;3.88;;;;;;;-7.87;100.00;100243.75;6221962;28;20058;-74
2022/12/14 05:44:38;;;;;;;5.70;3.92;;;;;;;-7.95;100.00;100242.78;6222040;28;20078;-74
2022/12/14 05:47:40;;;;;;;4.50;2.20;;;;;;;-7.96;100.00;100233.44;6222038;28;20054;-74
2022/12/14 05:50:41;;;;;;;6.68;3.00;;;;;;;-7.94;100.00;100237.75;6221986;28;20046;-73
2022/12/14 05:53:43;;;;;;;6.90;3.10;;;;;;;-7.97;100.00;100219.84;6222005;28;20050;-73
2022/12/14 05:56:46;;;;;;;8.73;4.10;;;;;;;-7.92;100.00;100215.66;6221843;28;20660;-74
2022/12/14 05:59:48;;;;;;;7.18;3.65;;;;;;;-7.94;100.00;100213.94;6221830;28;20053;-73
2022/12/14 06:02:49;;;;;;;5.95;3.67;;;;;;;-8.00;100.00;100219.78;6222128;28;20050;-75
2022/12/14 06:05:50;;;;;;;8.43;4.78;;;;;;;-8.00;100.00;100216.38;6222217;28;20046;-73
2022/12/14 06:08:52;;;;;;;4.57;3.08;;;;;;;-8.06;100.00;100208.66;6221788;28;20058;-73
2022/12/14 06:11:55;;;;;;;8.20;3.10;;;;;;;-8.08;100.00;100213.75;6221534;28;20502;-73
2022/12/14 06:14:56;;;;;;;6.72;4.63;;;;;;;-8.09;100.00;100217.13;6221542;28;20054;-73
2022/12/14 06:17:57;;;;;;;3.42;3.05;;;;;;;-8.10;100.00;100206.91;6215549;28;20212;-73
2022/12/14 06:20:59;;;;;;;3.42;2.67;;;;;;;-8.12;100.00;100204.34;6211706;28;20050;-74
2022/12/14 06:24:02;;;;;;;3.72;2.65;;;;;;;-8.15;100.00;100201.75;6207493;28;20054;-73
2022/12/14 06:27:05;;;;;;;5.85;4.07;;;;;;;-8.18;100.00;100205.09;6208947;28;20050;-74
2022/12/14 06:30:08;;;;;;;6.57;3.60;;;;;;;-8.17;100.00;100193.25;6212974;28;20045;-73
2022/12/14 06:33:09;;;;;;;7.78;3.13;;;;;;;-8.21;100.00;100192.34;6212268;28;20054;-74
2022/12/14 06:36:17;;;;;;;5.72;3.67;;;;;;;-8.22;100.00;100187.19;6212191;28;20404;-74
2022/12/14 06:39:19;;;;;;;7.03;3.05;;;;;;;-8.24;100.00;100187.19;6213460;28;20050;-73
2022/12/14 06:42:22;;;;;;;11.85;4.28;;;;;;;-8.23;100.00;100182.94;6210776;28;20053;-74
2022/12/14 06:45:23;;;;;;;3.25;2.72;;;;;;;-8.21;100.00;100184.69;6208365;28;20050;-74
2022/12/14 06:48:24;;;;;;;8.40;4.38;;;;;;;-8.22;100.00;100177.00;6212766;28;20448;-73
2022/12/14 06:51:26;;;;;;;3.00;2.42;;;;;;;-8.24;100.00;100168.50;6214221;28;20066;-74
2022/12/14 06:54:29;;;;;;;3.83;3.08;;;;;;;-8.26;100.00;100167.66;6225449;28;20165;-73
2022/12/14 06:57:31;;;;;;;4.00;2.08;;;;;;;-8.23;100.00;100165.97;6225622;28;20050;-74
2022/12/14 07:00:33;;;;;;;8.85;4.32;;;;;;;-8.23;100.00;100171.06;6225307;28;20656;-74
2022/12/14 07:03:35;;;;;;;17.83;4.43;;;;;;;-8.24;100.00;100166.81;6225562;28;20050;-74
2022/12/14 07:06:38;;;;;;;6.95;4.07;;;;;;;-8.21;100.00;100173.66;6225335;28;20116;-74
2022/12/14 07:09:40;;;;;;;9.48;5.07;;;;;;;-8.19;100.00;100166.88;6225207;28;20049;-74
2022/12/14 07:12:43;;;;;;;8.65;4.38;;;;;;;-8.18;100.00;100171.97;6225260;28;20057;-74
2022/12/14 07:15:44;;;;;;;4.78;3.20;;;;;;;-8.18;100.00;100166.03;6225105;28;20054;-74
2022/12/14 07:18:46;;;;;;;10.95;4.20;;;;;;;-8.14;100.00;100154.19;6225254;28;20517;-74
2022/12/14 07:21:48;;;;;;;4.45;2.17;;;;;;;-8.11;100.00;100151.69;6224962;28;20050;-74
2022/12/14 07:24:49;;;;;;;5.57;4.35;;;;;;;-8.11;100.00;100154.22;6225165;28;20057;-73
2022/12/14 07:27:52;;;;;;;9.65;3.30;;;;;;;-8.08;100.00;100149.16;6224773;28;20057;-73
2022/12/14 07:30:54;;;;;;;16.05;3.28;;;;;;;-8.08;100.00;100154.25;6224961;28;20053;-73
2022/12/14 07:33:58;;;;;;;11.02;4.47;;;;;;;-8.12;100.00;100153.38;6224671;28;20062;-74
2022/12/14 07:36:59;;;;;;;10.18;3.55;;;;;;;-8.13;100.00;100146.53;6224290;28;20057;-74
2022/12/14 07:40:02;;;;;;;9.93;3.67;;;;;;;-8.12;100.00;100150.84;6224592;28;20046;-73
2022/12/14 07:43:05;;;;;;;15.77;3.88;;;;;;;-8.20;100.00;100158.38;6224411;28;20061;-74
2022/12/14 07:46:09;;;;;;;4.38;3.33;;;;;;;-8.13;100.00;100159.28;6224610;28;20057;-74
2022/12/14 07:49:11;;;;;;;4.68;1.98;;;;;;;-8.19;100.00;100156.66;6224319;28;20088;-73
2022/12/14 07:52:12;;;;;;;14.70;2.63;;;;;;;-8.25;100.00;100157.47;6224525;28;20046;-73
2022/12/14 07:55:13;;;;;;;4.75;2.90;;;;;;;-8.22;100.00;100159.16;6224174;28;20066;-74
2022/12/14 07:58:16;;;;;;;6.95;2.75;;;;;;;-8.21;100.00;100155.81;6224407;28;20056;-74
2022/12/14 08:01:21;;;;;;;7.18;4.15;;;;;;;-8.18;100.00;100158.38;6224071;28;20042;-73
2022/12/14 08:04:22;;;;;;;6.93;3.42;;;;;;;-8.11;100.00;100157.63;6223962;28;20537;-73
2022/12/14 08:07:23;;;;;;;3.88;2.60;;;;;;;-8.18;100.00;100148.19;6223945;28;20468;-74
2022/12/14 08:10:25;;;;;;;4.75;3.22;;;;;;;-8.26;100.00;100153.22;6224021;28;20042;-74
2022/12/14 08:13:28;;;;;;;3.83;2.60;;;;;;;-8.24;100.00;100155.75;6223938;28;20072;-73
2022/12/14 08:16:30;;;;;;;3.50;2.60;;;;;;;-8.27;100.00;100160.81;6223503;28;20058;-74
2022/12/14 08:19:32;;;;;;;3.85;2.10;;;;;;;-8.22;100.00;100156.63;6223898;28;20041;-74
2022/12/14 08:22:33;;;;;;;12.82;4.43;;;;;;;-8.24;100.00;100155.75;6223541;28;20046;-74
2022/12/14 08:25:35;;;;;;;3.40;3.08;;;;;;;-8.24;100.00;100165.97;6223601;28;20184;-73
2022/12/14 08:28:37;;;;;;;3.20;2.88;;;;;;;-8.20;100.00;100162.63;6223261;28;20053;-74
2022/12/14 08:31:39;;;;;;;2.83;1.88;;;;;;;-8.18;100.00;100163.47;6223284;28;20054;-74
2022/12/14 08:34:40;;;;;;;4.95;3.28;;;;;;;-8.22;100.00;100160.06;6223294;28;20049;-73
2022/12/14 08:37:42;;;;;;;8.68;3.53;;;;;;;-8.24;100.00;100159.16;6223555;28;20057;-74
2022/12/14 08:40:43;;;;;;;3.83;2.85;;;;;;;-8.26;100.00;100160.84;6222995;28;20421;-73
2022/12/14 08:43:50;;;;;;;20.15;2.65;;;;;;;-8.31;100.00;100166.69;6223291;28;20065;-73
2022/12/14 08:46:51;;;;;;;9.70;3.65;;;;;;;-8.30;100.00;100166.75;6222399;28;20076;-74
2022/12/14 08:49:53;;;;;;;13.82;3.63;;;;;;;-8.24;100.00;100158.31;6222880;28;20754;-74
2022/12/14 08:52:54;;;;;;;5.53;2.80;;;;;;;-8.21;100.00;100161.75;6223051;28;20056;-74
2022/12/14 08:55:56;;;;;;;6.68;3.35;;;;;;;-8.20;100.00;100165.16;6222606;28;20054;-74
2022/12/14 08:58:58;;;;;;;13.18;4.63;;;;;;;-8.14;100.00;100155.03;6223504;28;20057;-74
2022/12/14 09:02:00;;;;;;;14.18;4.57;;;;;;;-8.10;100.00;100155.94;6222543;28;20493;-74
2022/12/14 09:05:01;;;;;;;5.97;2.80;;;;;;;-8.04;100.00;100151.78;6222673;28;20049;-72
2022/12/14 09:08:03;;;;;;;10.30;4.13;;;;;;;-8.08;100.00;100150.03;6222662;28;20050;-74
2022/12/14 09:11:06;;;;;;;8.73;3.10;;;;;;;-8.13;100.00;100149.09;6222501;28;20050;-74
2022/12/14 09:14:09;;;;;;;5.72;3.78;;;;;;;-8.17;100.00;100152.47;6222465;28;20090;-74
2022/12/14 09:17:10;;;;;;;15.32;5.50;;;;;;;-8.15;100.00;100162.69;6222603;28;20060;-74
2022/12/14 09:20:13;;;;;;;15.27;4.38;;;;;;;-8.19;100.00;100144.78;6222162;28;20509;-73
2022/12/14 09:23:14;;;;;;;3.97;2.88;;;;;;;-8.15;100.00;100143.13;6222677;28;20108;-72
2022/12/14 09:26:18;;;;;;;13.10;3.35;;;;;;;-8.07;100.00;100143.25;6222047;28;20046;-74
2022/12/14 09:29:21;;;;;;;6.38;3.05;;;;;;;-8.07;100.00;100148.34;6222247;28;20069;-74
2022/12/14 09:32:22;;;;;;;9.57;3.08;;;;;;;-8.00;100.00;100145.84;6222283;28;20053;-73
2022/12/14 09:35:23;;;;;;;11.73;5.20;;;;;;;-7.88;100.00;100141.75;6222097;28;20057;-74
2022/12/14 09:38:25;;;;;;;3.92;2.50;;;;;;;-7.81;100.00;100135.88;6222401;28;20054;-73
2022/12/14 09:41:36;;;;;;;6.05;3.42;;;;;;;-7.74;100.00;100132.56;6222006;28;20061;-73
2022/12/14 09:44:53;;;;;;;7.90;3.28;;;;;;;-7.75;100.00;100124.06;6222230;28;20181;-74
2022/12/14 09:48:00;;;;;;;10.40;2.97;;;;;;;-7.60;100.00;100123.34;6221934;28;20046;-73
2022/12/14 09:51:02;;;;;;;5.25;3.58;;;;;;;-7.51;100.00;100125.13;6221979;28;20046;-73
2022/12/14 09:54:08;;;;;;;8.63;4.75;;;;;;;-7.45;100.00;100123.53;6221849;28;20050;-73
2022/12/14 09:57:14;;;;;;;9.50;4.10;;;;;;;-7.40;100.00;100115.91;6221959;28;20061;-74
2022/12/14 10:00:19;;;;;;;9.30;4.57;;;;;;;-7.25;100.00;100115.16;6226203;28;20050;-74
2022/12/14 10:03:42;;;;;;;6.13;2.78;;;;;;;-7.18;100.00;100115.22;6227005;28;20501;-73
2022/12/14 10:06:50;;;;;;;14.02;3.67;;;;;;;-7.11;100.00;100111.03;6226719;28;20138;-73
2022/12/14 10:09:59;;;;;;;8.65;3.85;;;;;;;-6.96;100.00;100106.03;6226621;28;20042;-73
2022/12/14 10:13:10;;;;;;;8.65;4.60;;;;;;;-6.87;100.00;100102.69;6226690;28;20045;-74
2022/12/14 10:16:27;;;;;;;8.85;3.92;;;;;;;-6.77;100.00;100101.88;6226458;28;20525;-74
2022/12/14 10:19:39;;;;;;;6.78;3.53;;;;;;;-6.67;100.00;100098.56;6226527;28;20516;-74
2022/12/14 10:22:45;;;;;;;6.57;3.95;;;;;;;-6.62;100.00;100096.03;6226049;28;20065;-74
2022/12/14 10:25:47;;;;;;;11.05;4.45;;;;;;;-6.59;100.00;100092.63;6226543;28;20052;-74
2022/12/14 10:28:53;;;;;;;7.00;3.45;;;;;;;-6.44;100.00;100082.50;6226460;28;20096;-74
2022/12/14 10:32:04;;;;;;;4.40;2.90;;;;;;;-6.35;100.00;100080.00;6226330;28;20042;-74
2022/12/14 10:35:12;;;;;;;7.65;4.35;;;;;;;-6.30;100.00;100074.91;6226250;28;20049;-74
2022/12/14 10:38:24;;;;;;;12.25;5.30;;;;;;;-6.24;100.00;100077.47;6226246;28;20490;-74
2022/12/14 10:41:38;;;;;;;6.75;4.85;;;;;;;-6.13;100.00;100075.81;6225855;28;20074;-74
2022/12/14 10:44:50;;;;;;;9.80;4.13;;;;;;;-6.07;100.00;100070.72;6226026;28;20532;-74
2022/12/14 10:47:57;;;;;;;9.23;5.25;;;;;;;-5.99;100.00;100075.88;6225700;28;20054;-74
2022/12/14 10:51:02;;;;;;;7.97;3.58;;;;;;;-5.92;100.00;100072.44;6225885;28;20053;-74
2022/12/14 10:54:12;;;;;;;10.40;3.95;;;;;;;-5.97;100.00;100069.88;6225477;28;20704;-74
2022/12/14 10:57:17;;;;;;;8.10;3.63;;;;;;;-5.81;100.00;100065.63;6225717;28;20054;-74
2022/12/14 11:00:18;;;;;;;8.02;3.80;;;;;;;-5.70;100.00;100065.66;6225752;28;20050;-74
2022/12/14 11:03:22;;;;;;;14.55;5.35;;;;;;;-5.72;100.00;100057.97;6225667;28;20524;-74
2022/12/14 11:06:23;;;;;;;10.32;4.07;;;;;;;-5.63;100.00;100062.25;6225246;28;20075;-74
2022/12/14 11:09:26;;;;;;;13.88;4.78;;;;;;;-5.62;100.00;100066.53;6225027;28;20049;-74
2022/12/14 11:12:28;;;;;;;13.50;4.90;;;;;;;-5.51;100.00;100064.81;6224977;28;20112;-74
2022/12/14 11:15:33;;;;;;;9.48;5.97;;;;;;;-5.47;100.00;100063.97;6225141;28;20057;-74
2022/12/14 11:18:36;;;;;;;10.20;4.68;;;;;;;-5.41;100.00;100061.38;6225479;28;20046;-74
2022/12/14 11:21:39;;;;;;;10.82;4.05;;;;;;;-5.24;100.00;100065.66;6224539;28;20267;-74
2022/12/14 11:24:46;;;;;;;11.98;4.70;;;;;;;-5.02;100.00;100057.13;6224923;28;20054;-75
2022/12/14 11:27:48;;;;;;;6.60;4.63;;;;;;;-4.96;100.00;100054.53;6224769;28;20053;-74
2022/12/14 11:30:56;;;;;;;8.93;3.92;;;;;;;-4.95;100.00;100052.81;6224781;28;20520;-74
2022/12/14 11:34:01;;;;;;;6.97;5.00;;;;;;;-4.86;100.00;100052.81;6219078;28;20050;-74
2022/12/14 11:37:11;;;;;;;9.30;3.92;;;;;;;-4.87;100.00;100045.97;6224765;28;20052;-74
2022/12/14 11:40:20;;;;;;;5.07;3.20;;;;;;;-4.92;100.00;100038.31;6224522;28;20433;-75
2022/12/14 11:43:27;;;;;;;11.80;5.57;;;;;;;-4.94;100.00;100042.59;6224905;28;20057;-75
2022/12/14 11:46:42;;;;;;;5.13;3.33;;;;;;;-4.98;100.00;100046.00;6224591;28;20049;-75
2022/12/14 11:49:47;;;;;;;18.95;4.55;;;;;;;-4.89;100.00;100035.75;6224402;28;20086;-74
2022/12/14 11:52:48;;;;;;;8.45;5.00;;;;;;;-4.81;100.00;100030.63;6224511;28;20502;-73
2022/12/14 11:55:55;;;;;;;7.38;4.18;;;;;;;-4.76;100.00;100033.16;6224246;28;20058;-73
2022/12/14 11:58:57;;;;;;;9.13;3.78;;;;;;;-4.62;100.00;100032.25;6224157;28;20092;-73
2022/12/14 12:02:09;;;;;;;10.02;3.85;;;;;;;-4.28;100.00;100026.97;6224098;28;20045;-73
2022/12/14 12:05:15;;;;;;;7.38;4.07;;;;;;;-3.98;100.00;100022.56;6224055;28;20060;-73
2022/12/14 12:08:21;;;;;;;6.88;4.13;;;;;;;-3.90;100.00;100024.22;6218782;28;20497;-73
2022/12/14 12:11:26;;;;;;;9.52;4.45;;;;;;;-3.86;100.00;100032.72;6207312;28;20410;-73
2022/12/14 12:14:33;;;;;;;9.90;2.55;;;;;;;-3.76;100.00;100031.84;6201340;28;20050;-73
2022/12/14 12:17:40;;;;;;;17.35;4.93;;;;;;;-3.58;100.00;100028.28;6199386;28;20528;-74
2022/12/14 12:20:52;;;;;;;7.05;4.13;;;;;;;-3.62;100.00;100018.91;6199431;28;20502;-74
2022/12/14 12:23:59;;;;;;;13.50;4.88;;;;;;;-3.60;100.00;100019.72;6198468;28;20058;-74
2022/12/14 12:27:10;;;;;;;9.15;3.22;;;;;;;-3.54;100.00;100019.69;6199327;28;20142;-75
2022/12/14 12:30:22;;;;;;;12.90;5.03;;;;;;;-3.60;100.00;100020.56;6199019;28;20418;-74
2022/12/14 12:33:31;;;;;;;12.10;5.40;;;;;;;-3.75;100.00;100019.84;6199114;28;20521;-75
2022/12/14 12:36:34;;;;;;;13.60;4.70;;;;;;;-3.83;100.00;100013.03;6199134;28;20054;-75
2022/12/14 12:39:40;;;;;;;13.75;5.00;;;;;;;-3.91;100.00;100021.66;6198885;28;20046;-74
2022/12/14 12:42:45;;;;;;;5.90;3.97;;;;;;;-3.95;100.00;100020.84;6199270;28;20054;-74
2022/12/14 12:45:51;;;;;;;6.13;3.28;;;;;;;-4.02;100.00;100016.59;6198854;28;20058;-74
2022/12/14 12:49:00;;;;;;;12.98;5.82;;;;;;;-4.01;100.00;100017.44;6198834;28;20053;-74
2022/12/14 12:52:06;;;;;;;14.95;3.75;;;;;;;-4.09;100.00;100004.66;6198670;28;20054;-74
2022/12/14 12:55:13;;;;;;;7.15;3.75;;;;;;;-4.12;100.00;99997.84;6198501;28;20054;-74
2022/12/14 12:58:21;;;;;;;10.25;3.97;;;;;;;-4.17;100.00;100001.28;6198816;28;20061;-74
2022/12/14 13:01:28;;;;;;;10.75;3.30;;;;;;;-4.17;100.00;100001.28;6198412;28;20065;-74
2022/12/14 13:04:35;;;;;;;8.63;4.43;;;;;;;-4.18;100.00;99990.19;6198573;28;20058;-74
2022/12/14 13:07:42;;;;;;;16.08;5.20;;;;;;;-4.17;100.00;99997.00;6198355;28;20056;-73
2022/12/14 13:10:45;;;;;;;8.20;3.38;;;;;;;-4.13;100.00;99995.28;6198281;28;20074;-74
2022/12/14 13:13:50;;;;;;;6.30;2.50;;;;;;;-4.11;100.00;99996.13;6198175;28;20046;-74
2022/12/14 13:16:53;;;;;;;7.47;4.22;;;;;;;-4.11;100.00;99996.97;6198426;28;20046;-75
2022/12/14 13:19:57;;;;;;;13.00;5.15;;;;;;;-4.13;100.00;99993.56;6198139;28;20050;-74
2022/12/14 13:23:03;;;;;;;12.52;4.55;;;;;;;-4.09;100.00;99990.13;6198272;28;20114;-73
2022/12/14 13:26:20;;;;;;;8.13;3.85;;;;;;;-4.09;100.00;99992.69;6197760;28;20417;-73
2022/12/14 13:29:36;;;;;;;7.93;4.18;;;;;;;-4.06;100.00;99991.81;6198139;28;20054;-74
2022/12/14 13:32:50;;;;;;;7.38;3.65;;;;;;;-4.06;100.00;99991.81;6197483;28;20054;-74
2022/12/14 13:36:13;;;;;;;7.68;4.20;;;;;;;-4.05;100.00;99982.41;6197950;28;20050;-74
2022/12/14 13:39:31;;;;;;;7.50;4.82;;;;;;;-4.06;100.00;99978.13;6198089;28;20057;-74
2022/12/14 13:42:41;;;;;;;9.63;3.67;;;;;;;-4.04;100.00;99977.28;6197759;28;20053;-74
2022/12/14 13:45:46;;;;;;;5.82;3.30;;;;;;;-4.07;100.00;99977.28;6197932;28;20050;-74
2022/12/14 13:48:51;;;;;;;14.50;4.88;;;;;;;-4.06;100.00;99978.13;6197603;28;20054;-74
2022/12/14 13:51:52;;;;;;;10.30;5.00;;;;;;;-4.06;100.00;99978.13;6197884;28;20104;-74
2022/12/14 13:54:55;;;;;;;8.38;3.90;;;;;;;-4.06;100.00;99978.13;6197544;28;20054;-73
2022/12/14 13:58:08;;;;;;;5.32;3.25;;;;;;;-4.07;100.00;99976.44;6197900;28;20057;-74
2022/12/14 14:01:13;;;;;;;10.48;5.18;;;;;;;-4.08;100.00;99980.72;6197336;28;20510;-74
2022/12/14 14:04:20;;;;;;;6.47;3.90;;;;;;;-4.06;100.00;99983.25;6197387;28;20594;-73
2022/12/14 14:07:50;;;;;;;9.30;4.10;;;;;;;-4.07;100.00;99987.53;6197626;28;20047;-74
2022/12/14 14:10:53;;;;;;;16.73;4.82;;;;;;;-4.12;100.00;99977.31;6184236;28;20417;-73
2022/12/14 14:14:09;;;;;;;6.85;5.45;;;;;;;-4.16;100.00;99985.88;6197328;28;20494;-73
2022/12/14 14:17:19;;;;;;;15.10;5.78;;;;;;;-4.18;100.00;99987.63;6197485;28;20069;-74
2022/12/14 14:20:36;;;;;;;7.80;4.43;;;;;;;-4.16;100.00;99987.59;6197211;28;20046;-74